Time;durP1;ratioP1;P1;durP2;ratioP2;P2;SDS_P1;SDS_P2;PMS_P1;PMS_P2;Temp;Humidity;BMP_temperature;BMP_pressure;BME280_temperature;BME280_humidity;BME280_pressure;Samples;Min_cycle;Max_cycle;Signal;HPM_P1;HPM_P2
2023/12/30 00:02:00;;;;;;;5.17;1.87;;;8.00;1.00;;;;;;5049322;28;20226;-80
2023/12/30 00:04:27;;;;;;;4.30;1.80;;;8.00;99.90;;;;;;5039505;28;20204;-80
2023/12/30 00:06:54;;;;;;;2.23;1.17;;;8.00;1.00;;;;;;5040913;28;20290;-80
2023/12/30 00:09:21;;;;;;;2.70;1.40;;;8.10;1.00;;;;;;5039774;28;20203;-78
2023/12/30 00:11:47;;;;;;;1.57;0.90;;;8.00;1.00;;;;;;5050545;28;20269;-79
2023/12/30 00:14:14;;;;;;;0.80;0.70;;;8.10;1.00;;;;;;5040494;28;20203;-80
2023/12/30 00:16:41;;;;;;;2.90;0.80;;;7.90;99.90;;;;;;5047341;28;20214;-79
2023/12/30 00:19:11;;;;;;;0.50;0.50;;;7.80;99.90;;;;;;5049347;28;20560;-81
2023/12/30 00:21:38;;;;;;;0.67;0.40;;;7.70;99.90;;;;;;5043381;28;20199;-81
2023/12/30 00:24:06;;;;;;;1.07;0.40;;;7.70;1.00;;;;;;5065748;28;20230;-79
2023/12/30 00:26:32;;;;;;;2.87;0.70;;;7.70;1.00;;;;;;5049751;28;20210;-80
2023/12/30 00:29:00;;;;;;;1.03;0.50;;;7.60;84.80;;;;;;5048414;28;20208;-80
2023/12/30 00:31:28;;;;;;;1.30;0.40;;;7.70;1.00;;;;;;5048016;28;20210;-79
2023/12/30 00:33:56;;;;;;;0.30;0.30;;;7.80;1.00;;;;;;5048442;28;20203;-80
2023/12/30 00:36:24;;;;;;;0.60;0.50;;;7.50;1.00;;;;;;5046999;28;20200;-81
2023/12/30 00:38:53;;;;;;;2.50;0.30;;;7.40;99.90;;;;;;5051015;28;20654;-81
2023/12/30 00:41:19;;;;;;;1.50;0.30;;;7.40;99.90;;;;;;5048832;28;20654;-79
2023/12/30 00:43:46;;;;;;;0.73;0.27;;;7.40;99.90;;;;;;5056992;28;20223;-80
2023/12/30 00:46:13;;;;;;;1.20;0.27;;;7.40;1.00;;;;;;5046634;28;20200;-81
2023/12/30 00:48:40;;;;;;;0.40;0.20;;;7.40;99.90;;;;;;5056657;28;20203;-80
2023/12/30 00:51:07;;;;;;;0.40;0.40;;;7.40;1.00;;;;;;5048026;28;20195;-80
2023/12/30 00:53:35;;;;;;;0.40;0.33;;;7.40;99.90;;;;;;5056327;28;20769;-80
2023/12/30 00:56:02;;;;;;;0.50;0.30;;;7.50;99.90;;;;;;5051534;28;20195;-80
2023/12/30 00:58:28;;;;;;;0.63;0.30;;;7.70;1.00;;;;;;5043112;28;20206;-81
2023/12/30 01:00:55;;;;;;;1.50;0.57;;;8.00;1.00;;;;;;5046796;28;20206;-79
2023/12/30 01:03:22;;;;;;;1.53;0.30;;;7.60;99.90;;;;;;5046100;28;20233;-80
2023/12/30 01:05:49;;;;;;;1.20;0.23;;;7.90;1.00;;;;;;5059045;28;20209;-81
2023/12/30 01:08:16;;;;;;;0.37;0.20;;;7.70;1.00;;;;;;5055090;28;20206;-81
2023/12/30 01:10:44;;;;;;;0.60;0.33;;;7.50;1.00;;;;;;5047001;28;20290;-82
2023/12/30 01:13:11;;;;;;;1.70;0.30;;;7.60;1.00;;;;;;5050323;28;20248;-79
2023/12/30 01:15:37;;;;;;;0.47;0.30;;;7.50;99.90;;;;;;5046984;28;20318;-79
2023/12/30 01:18:05;;;;;;;0.50;0.30;;;7.60;99.90;;;;;;5054961;28;20207;-80
2023/12/30 01:20:32;;;;;;;1.53;0.13;;;7.30;1.00;;;;;;5049947;28;20634;-79
2023/12/30 01:22:59;;;;;;;0.10;0.10;;;7.10;1.00;;;;;;5041088;28;20227;-81
2023/12/30 01:25:25;;;;;;;0.33;0.20;;;7.00;99.90;;;;;;5057293;28;20209;-81
2023/12/30 01:27:53;;;;;;;3.47;0.30;;;7.00;1.00;;;;;;5047210;28;20210;-80
2023/12/30 01:30:20;;;;;;;0.47;0.30;;;7.00;99.90;;;;;;5043142;28;20295;-81
2023/12/30 01:32:47;;;;;;;0.30;0.20;;;7.00;99.90;;;;;;5055612;28;20215;-80
2023/12/30 01:35:14;;;;;;;0.83;0.20;;;7.00;99.90;;;;;;5047375;28;20214;-79
2023/12/30 01:37:41;;;;;;;5.43;0.73;;;7.00;99.90;;;;;;5045227;28;20209;-79
2023/12/30 01:40:09;;;;;;;0.30;0.30;;;7.00;99.90;;;;;;5051762;28;20586;-79
2023/12/30 01:42:36;;;;;;;0.73;0.27;;;7.00;99.90;;;;;;5045467;28;20224;-79
2023/12/30 01:45:05;;;;;;;0.50;0.20;;;7.00;99.90;;;;;;5042301;28;20203;-79
2023/12/30 01:47:32;;;;;;;1.67;0.30;;;6.90;99.90;;;;;;5051583;28;20203;-79
2023/12/30 01:49:59;;;;;;;0.23;0.13;;;6.90;99.90;;;;;;5049697;28;20200;-79
2023/12/30 01:52:26;;;;;;;0.93;0.20;;;6.90;99.90;;;;;;5055526;28;20245;-81
2023/12/30 01:54:53;;;;;;;1.43;0.43;;;6.90;99.90;;;;;;5050596;28;20204;-79
2023/12/30 01:57:20;;;;;;;0.40;0.40;;;6.80;99.90;;;;;;5044309;28;20196;-80
2023/12/30 01:59:48;;;;;;;1.73;0.30;;;6.90;99.90;;;;;;5051921;28;20252;-80
2023/12/30 02:02:16;;;;;;;2.87;0.50;;;6.80;99.90;;;;;;5054976;28;20744;-81
2023/12/30 02:04:44;;;;;;;1.73;0.60;;;6.80;56.50;;;;;;5056316;28;20202;-81
2023/12/30 02:07:10;;;;;;;4.53;0.83;;;6.80;99.90;;;;;;5052299;28;20215;-79
2023/12/30 02:09:37;;;;;;;1.07;0.40;;;6.80;99.90;;;;;;5053836;28;20205;-79
2023/12/30 02:12:05;;;;;;;3.07;0.30;;;6.70;99.90;;;;;;5056579;28;20272;-80
2023/12/30 02:14:32;;;;;;;2.00;0.60;;;6.60;99.90;;;;;;5052545;28;20290;-80
2023/12/30 02:17:00;;;;;;;0.70;0.50;;;6.60;99.90;;;;;;5053089;28;20685;-81
2023/12/30 02:19:28;;;;;;;1.03;0.40;;;6.60;99.90;;;;;;5055317;28;20203;-80
2023/12/30 02:21:54;;;;;;;1.03;0.50;;;6.70;99.90;;;;;;5067124;28;20222;-80
2023/12/30 02:24:23;;;;;;;2.40;0.50;;;6.80;99.90;;;;;;5055036;28;20234;-79
2023/12/30 02:26:50;;;;;;;4.30;0.50;;;7.10;99.90;;;;;;5048750;28;20595;-80
2023/12/30 02:29:16;;;;;;;4.10;0.60;;;7.00;99.90;;;;;;5044686;28;20207;-80
2023/12/30 02:31:47;;;;;;;3.03;0.60;;;7.00;99.90;;;;;;5045485;28;20198;-79
2023/12/30 02:34:14;;;;;;;2.30;0.57;;;6.90;99.90;;;;;;5046508;28;20739;-80
2023/12/30 02:36:41;;;;;;;3.30;0.63;;;6.90;99.90;;;;;;5043688;28;20203;-79
2023/12/30 02:39:07;;;;;;;1.70;0.60;;;6.90;99.90;;;;;;5051575;28;20226;-79
2023/12/30 02:41:36;;;;;;;3.37;0.70;;;6.90;99.90;;;;;;5049300;28;20654;-81
2023/12/30 02:44:03;;;;;;;3.33;0.93;;;7.00;99.90;;;;;;5043599;28;20225;-80
2023/12/30 02:46:30;;;;;;;1.23;0.50;;;6.80;99.90;;;;;;5055428;28;20336;-81
2023/12/30 02:49:02;;;;;;;1.77;0.80;;;6.90;99.90;;;;;;5044761;28;20671;-80
2023/12/30 02:51:29;;;;;;;0.80;0.70;;;6.90;99.90;;;;;;5048201;28;20697;-79
2023/12/30 02:53:56;;;;;;;3.50;0.80;;;6.90;99.90;;;;;;5048180;28;20682;-79
2023/12/30 02:56:24;;;;;;;2.43;0.70;;;6.90;99.90;;;;;;5044609;28;20560;-81
2023/12/30 02:58:55;;;;;;;1.27;0.63;;;6.90;99.90;;;;;;5052951;28;20206;-79
2023/12/30 03:01:23;;;;;;;3.60;0.67;;;7.00;90.40;;;;;;5051402;28;20229;-80
2023/12/30 03:03:52;;;;;;;4.10;1.00;;;7.00;48.60;;;;;;5044018;28;20227;-80
2023/12/30 03:06:19;;;;;;;5.03;1.07;;;7.00;83.50;;;;;;5053851;28;20593;-79
2023/12/30 03:08:46;;;;;;;1.90;0.70;;;7.00;98.70;;;;;;5053997;28;20213;-80
2023/12/30 03:11:13;;;;;;;4.77;0.80;;;6.90;92.40;;;;;;5050328;28;20582;-79
2023/12/30 03:13:40;;;;;;;2.93;0.60;;;6.90;99.90;;;;;;5051156;28;20222;-79
2023/12/30 03:16:10;;;;;;;1.67;0.60;;;6.90;99.90;;;;;;5050244;28;20205;-79
2023/12/30 03:18:39;;;;;;;1.77;0.80;;;6.80;99.90;;;;;;5043144;28;20253;-80
2023/12/30 03:21:07;;;;;;;1.33;0.80;;;7.00;1.00;;;;;;5062028;28;20221;-81
2023/12/30 03:23:34;;;;;;;3.40;1.00;;;7.00;1.00;;;;;;5046517;28;20307;-80
2023/12/30 03:26:01;;;;;;;5.10;0.70;;;6.90;81.40;;;;;;5053360;28;20210;-80
2023/12/30 03:28:28;;;;;;;3.63;0.90;;;7.00;3.60;;;;;;5048183;28;20211;-79
2023/12/30 03:30:55;;;;;;;1.60;0.60;;;7.00;1.00;;;;;;5048751;28;20199;-80
2023/12/30 03:33:24;;;;;;;1.27;0.60;;;7.00;1.00;;;;;;5054307;28;20298;-80
2023/12/30 03:35:50;;;;;;;2.47;0.80;;;7.00;1.00;;;;;;5044052;28;20203;-80
2023/12/30 03:38:17;;;;;;;5.03;0.83;;;7.00;1.00;;;;;;5040597;28;20206;-80
2023/12/30 03:40:44;;;;;;;1.47;0.63;;;7.00;1.00;;;;;;5046536;28;20203;-82
2023/12/30 03:43:11;;;;;;;2.10;0.63;;;6.90;1.00;;;;;;5048144;28;20230;-82
2023/12/30 03:45:38;;;;;;;4.53;1.00;;;6.90;11.20;;;;;;5049126;28;20218;-82
2023/12/30 03:48:05;;;;;;;3.60;0.60;;;6.90;1.00;;;;;;5046199;28;20195;-80
2023/12/30 03:50:33;;;;;;;4.17;0.70;;;6.90;1.00;;;;;;5049552;28;20210;-81
2023/12/30 03:53:03;;;;;;;2.83;0.63;;;6.90;1.00;;;;;;5053709;28;20231;-80
2023/12/30 03:55:30;;;;;;;3.80;0.70;;;6.90;32.80;;;;;;5050596;28;20210;-80
2023/12/30 03:57:57;;;;;;;2.27;0.60;;;6.90;40.40;;;;;;5047405;28;20214;-80
2023/12/30 04:00:23;;;;;;;5.43;0.90;;;7.20;1.00;;;;;;5055938;28;20285;-80
2023/12/30 04:02:50;;;;;;;2.93;0.80;;;6.90;16.50;;;;;;5047686;28;20231;-80
2023/12/30 04:05:17;;;;;;;3.40;1.10;;;6.80;94.70;;;;;;5051799;28;20237;-80
2023/12/30 04:07:45;;;;;;;4.70;1.00;;;6.90;99.90;;;;;;5051929;28;20199;-80
2023/12/30 04:10:14;;;;;;;4.53;0.97;;;6.80;99.90;;;;;;5055788;28;20229;-79
2023/12/30 04:12:41;;;;;;;2.30;0.93;;;7.00;99.90;;;;;;5053712;28;20605;-81
2023/12/30 04:15:09;;;;;;;4.97;0.90;;;6.70;99.90;;;;;;5052147;28;20199;-79
2023/12/30 04:17:36;;;;;;;3.80;1.30;;;6.70;1.00;;;;;;5050742;28;20209;-80
2023/12/30 04:20:03;;;;;;;5.97;2.27;;;6.70;99.90;;;;;;5053093;28;20196;-81
2023/12/30 04:22:30;;;;;;;3.60;1.30;;;6.70;99.90;;;;;;5049829;28;20243;-82
2023/12/30 04:24:59;;;;;;;5.60;1.40;;;6.60;99.90;;;;;;5043121;28;20238;-82
2023/12/30 04:27:26;;;;;;;3.33;0.73;;;6.60;99.90;;;;;;5044447;28;20231;-81
2023/12/30 04:29:53;;;;;;;2.67;1.13;;;6.60;99.90;;;;;;5052598;28;20656;-82
2023/12/30 04:32:20;;;;;;;2.83;1.10;;;6.70;99.90;;;;;;5056601;28;20254;-81
2023/12/30 04:34:47;;;;;;;3.10;0.97;;;6.60;99.90;;;;;;5054948;28;20614;-82
2023/12/30 04:37:14;;;;;;;4.47;1.13;;;6.60;99.90;;;;;;5055511;28;20289;-80
2023/12/30 04:39:41;;;;;;;1.97;0.90;;;6.60;99.90;;;;;;5053038;28;20227;-80
2023/12/30 04:42:09;;;;;;;5.73;1.23;;;6.70;99.90;;;;;;5045218;28;20219;-82
2023/12/30 04:44:36;;;;;;;6.27;1.30;;;6.70;85.10;;;;;;5040930;28;20228;-80
2023/12/30 04:47:03;;;;;;;3.27;0.93;;;6.70;99.90;;;;;;5052886;28;20204;-80
2023/12/30 04:49:30;;;;;;;4.77;1.73;;;6.60;99.90;;;;;;5041315;28;20207;-79
2023/12/30 04:51:57;;;;;;;1.97;1.40;;;6.70;99.90;;;;;;5050162;28;20693;-80
2023/12/30 04:54:25;;;;;;;1.53;0.90;;;6.80;99.90;;;;;;5050224;28;20657;-80
2023/12/30 04:56:52;;;;;;;3.57;0.90;;;6.60;99.90;;;;;;5043258;28;20211;-80
2023/12/30 04:59:20;;;;;;;5.50;1.17;;;6.80;99.90;;;;;;5050688;28;20572;-80
2023/12/30 05:01:47;;;;;;;4.23;0.90;;;6.70;99.90;;;;;;5065587;28;20227;-80
2023/12/30 05:04:14;;;;;;;4.43;0.80;;;7.00;99.90;;;;;;5058285;28;20266;-79
2023/12/30 05:06:41;;;;;;;4.37;1.10;;;6.80;54.60;;;;;;5051119;28;20205;-81
2023/12/30 05:09:08;;;;;;;2.07;1.33;;;6.60;1.00;;;;;;5055410;28;20310;-79
2023/12/30 05:11:35;;;;;;;3.83;1.60;;;6.60;63.00;;;;;;5050856;28;20265;-82
2023/12/30 05:14:02;;;;;;;4.57;1.57;;;6.70;1.00;;;;;;5049400;28;20318;-80
2023/12/30 05:16:30;;;;;;;3.87;1.93;;;6.70;1.00;;;;;;5052544;28;20202;-81
2023/12/30 05:18:57;;;;;;;3.83;1.27;;;6.70;1.00;;;;;;5056790;28;20211;-82
2023/12/30 05:21:23;;;;;;;6.37;1.23;;;6.70;1.00;;;;;;5065463;28;20210;-79
2023/12/30 05:23:51;;;;;;;7.83;1.47;;;6.70;1.00;;;;;;5061221;28;20219;-80
2023/12/30 05:26:18;;;;;;;5.63;1.37;;;6.70;1.00;;;;;;5065702;28;20268;-81
2023/12/30 05:28:45;;;;;;;4.00;1.57;;;6.70;9.50;;;;;;5059294;28;20207;-79
2023/12/30 05:31:11;;;;;;;9.17;2.00;;;6.70;96.50;;;;;;5049394;28;20208;-81
2023/12/30 05:33:40;;;;;;;5.47;1.63;;;6.70;99.90;;;;;;5049883;28;20298;-81
2023/12/30 05:36:08;;;;;;;4.17;2.00;;;6.60;99.90;;;;;;5052475;28;20230;-80
2023/12/30 05:38:35;;;;;;;7.03;2.27;;;6.60;99.90;;;;;;5063574;28;20597;-80
2023/12/30 05:41:02;;;;;;;4.57;1.40;;;6.60;99.90;;;;;;5045675;28;20559;-79
2023/12/30 05:43:29;;;;;;;7.03;2.13;;;6.60;99.90;;;;;;5042719;28;20224;-79
2023/12/30 05:45:55;;;;;;;6.93;2.20;;;6.70;51.50;;;;;;5049118;28;20215;-80
2023/12/30 05:48:22;;;;;;;7.07;1.90;;;6.60;99.90;;;;;;5044687;28;20235;-80
2023/12/30 05:50:50;;;;;;;7.47;2.30;;;6.70;99.90;;;;;;5047117;28;20207;-79
2023/12/30 05:53:17;;;;;;;9.10;1.90;;;6.60;99.90;;;;;;5048202;28;20234;-82
2023/12/30 05:55:44;;;;;;;9.10;2.37;;;6.60;99.90;;;;;;5049655;28;20207;-81
2023/12/30 05:58:11;;;;;;;10.90;2.83;;;6.60;99.90;;;;;;5049986;28;20543;-81
2023/12/30 06:00:38;;;;;;;5.70;2.20;;;6.80;1.00;;;;;;5051598;28;20600;-82
2023/12/30 06:03:05;;;;;;;4.70;2.27;;;6.70;56.30;;;;;;5038387;28;20223;-81
2023/12/30 06:05:32;;;;;;;5.77;2.13;;;6.60;77.50;;;;;;5050448;28;20223;-80
2023/12/30 06:08:00;;;;;;;5.77;2.83;;;6.70;1.00;;;;;;5054491;28;20200;-79
2023/12/30 06:10:27;;;;;;;4.73;2.23;;;7.20;1.00;;;;;;5065719;28;20204;-81
2023/12/30 06:12:53;;;;;;;6.73;2.27;;;6.60;28.90;;;;;;5058023;28;20703;-80
2023/12/30 06:15:22;;;;;;;10.63;2.50;;;6.80;1.00;;;;;;5043652;28;20207;-78
2023/12/30 06:17:49;;;;;;;6.03;2.03;;;7.10;1.00;;;;;;5059272;28;20199;-80
2023/12/30 06:20:16;;;;;;;5.90;2.37;;;7.10;1.00;;;;;;5045794;28;20218;-79
2023/12/30 06:22:43;;;;;;;9.10;2.70;;;6.70;1.00;;;;;;5040791;28;20603;-79
2023/12/30 06:25:11;;;;;;;8.10;2.03;;;6.70;1.00;;;;;;5056332;28;20653;-80
2023/12/30 06:27:38;;;;;;;7.20;2.63;;;6.80;1.00;;;;;;5050072;28;20908;-79
2023/12/30 06:30:06;;;;;;;7.73;2.47;;;6.90;1.00;;;;;;5055616;28;20646;-81
2023/12/30 06:32:32;;;;;;;7.53;2.10;;;6.90;1.00;;;;;;5054331;28;20559;-80
2023/12/30 06:34:59;;;;;;;9.23;2.47;;;6.80;1.00;;;;;;5052136;28;20199;-79
2023/12/30 06:37:26;;;;;;;4.37;2.40;;;6.80;1.00;;;;;;5050024;28;20290;-80
2023/12/30 06:39:53;;;;;;;9.90;2.67;;;6.90;1.00;;;;;;5053422;28;20207;-82
2023/12/30 06:42:21;;;;;;;4.83;2.13;;;6.90;1.00;;;;;;5061762;28;20227;-80
2023/12/30 06:44:48;;;;;;;12.20;2.63;;;7.00;1.00;;;;;;5046974;28;20222;-80
2023/12/30 06:47:14;;;;;;;5.97;2.30;;;6.80;1.00;;;;;;5059204;28;20203;-82
2023/12/30 06:49:41;;;;;;;5.70;2.33;;;6.80;1.00;;;;;;5049543;28;20206;-81
2023/12/30 06:52:08;;;;;;;6.67;2.70;;;6.90;1.00;;;;;;5045525;28;20231;-80
2023/12/30 06:54:35;;;;;;;12.00;3.10;;;6.80;1.00;;;;;;5042333;28;20196;-81
2023/12/30 06:57:02;;;;;;;6.23;2.70;;;6.80;1.00;;;;;;5046877;28;20201;-81
2023/12/30 06:59:30;;;;;;;7.53;2.00;;;6.80;1.00;;;;;;5056418;28;20209;-81
2023/12/30 07:01:57;;;;;;;6.00;2.20;;;6.80;1.00;;;;;;5046098;28;20225;-80
2023/12/30 07:04:26;;;;;;;6.37;1.90;;;7.00;1.00;;;;;;5048262;28;20219;-80
2023/12/30 07:06:53;;;;;;;8.80;2.80;;;7.00;1.00;;;;;;5042419;28;20204;-79
2023/12/30 07:09:20;;;;;;;8.03;2.40;;;7.00;1.00;;;;;;5055217;28;20289;-82
2023/12/30 07:11:47;;;;;;;12.77;2.70;;;6.80;1.00;;;;;;5047457;28;20231;-80
2023/12/30 07:14:14;;;;;;;6.80;3.17;;;6.90;1.00;;;;;;5053457;28;20238;-80
2023/12/30 07:16:42;;;;;;;9.03;2.40;;;6.90;1.00;;;;;;5056822;28;20216;-80
2023/12/30 07:19:09;;;;;;;9.20;2.50;;;6.90;1.00;;;;;;5061222;28;20313;-80
2023/12/30 07:21:36;;;;;;;11.33;4.00;;;6.90;1.00;;;;;;5059203;28;20211;-80
2023/12/30 07:24:03;;;;;;;4.93;2.20;;;6.90;1.00;;;;;;5060846;28;20237;-79
2023/12/30 07:26:29;;;;;;;7.00;2.73;;;6.90;1.00;;;;;;5060360;28;20210;-81
2023/12/30 07:28:56;;;;;;;5.10;1.93;;;6.90;1.00;;;;;;5051299;28;20199;-81
2023/12/30 07:31:23;;;;;;;7.23;2.33;;;6.90;1.00;;;;;;5051708;28;20223;-81
2023/12/30 07:33:51;;;;;;;12.27;2.73;;;6.90;99.90;;;;;;5054884;28;20223;-80
2023/12/30 07:36:19;;;;;;;6.03;2.20;;;6.90;1.00;;;;;;5049186;28;20205;-80
2023/12/30 07:38:46;;;;;;;13.00;3.10;;;6.90;1.00;;;;;;5043414;28;20265;-80
2023/12/30 07:41:14;;;;;;;6.10;2.20;;;6.90;1.00;;;;;;5058158;28;20221;-80
2023/12/30 07:43:41;;;;;;;6.00;2.07;;;6.80;1.00;;;;;;5056149;28;20256;-82
2023/12/30 07:46:08;;;;;;;8.37;2.30;;;7.10;1.00;;;;;;5042285;28;20223;-81
2023/12/30 07:48:35;;;;;;;10.70;2.30;;;6.80;1.00;;;;;;5045012;28;20579;-80
2023/12/30 07:51:03;;;;;;;6.07;2.20;;;6.80;1.00;;;;;;5043085;28;20217;-79
2023/12/30 07:53:30;;;;;;;10.90;2.77;;;6.90;1.00;;;;;;5058160;28;20226;-80
2023/12/30 07:55:57;;;;;;;8.27;2.20;;;6.90;1.00;;;;;;5052679;28;20202;-81
2023/12/30 07:58:24;;;;;;;7.87;1.90;;;7.20;1.00;;;;;;5042859;28;20208;-80
2023/12/30 08:00:51;;;;;;;9.00;2.53;;;6.80;1.00;;;;;;5051572;28;20203;-80
2023/12/30 08:03:18;;;;;;;10.57;2.27;;;6.90;1.00;;;;;;5056150;28;20228;-81
2023/12/30 08:05:45;;;;;;;5.17;2.07;;;6.90;1.00;;;;;;5057067;28;20305;-81
2023/12/30 08:08:13;;;;;;;9.03;2.10;;;6.90;1.00;;;;;;5054419;28;20206;-82
2023/12/30 08:10:40;;;;;;;7.93;2.00;;;7.00;1.00;;;;;;5049496;28;20204;-80
2023/12/30 08:13:07;;;;;;;9.27;2.87;;;7.10;1.00;;;;;;5053328;28;20219;-82
2023/12/30 08:15:34;;;;;;;8.37;2.40;;;7.20;1.00;;;;;;5059865;28;20871;-82
2023/12/30 08:18:01;;;;;;;7.13;1.90;;;7.00;1.00;;;;;;5044368;28;20196;-83
2023/12/30 08:20:27;;;;;;;8.37;2.30;;;7.00;1.00;;;;;;5045351;28;20207;-81
2023/12/30 08:22:54;;;;;;;8.57;2.13;;;7.10;1.00;;;;;;5059469;28;20226;-83
2023/12/30 08:25:22;;;;;;;5.73;2.17;;;7.20;1.00;;;;;;5043013;28;20697;-80
2023/12/30 08:27:49;;;;;;;10.03;2.20;;;7.20;1.00;;;;;;5050668;28;20220;-82
2023/12/30 08:30:16;;;;;;;6.63;2.30;;;7.30;1.00;;;;;;5056350;28;20202;-81
2023/12/30 08:32:43;;;;;;;8.27;2.50;;;7.20;1.00;;;;;;5056854;28;20218;-81
2023/12/30 08:35:11;;;;;;;13.07;2.43;;;7.20;1.00;;;;;;5060618;28;20209;-80
2023/12/30 08:37:38;;;;;;;6.43;2.53;;;7.30;1.00;;;;;;5046759;28;20215;-79
2023/12/30 08:40:09;;;;;;;6.10;1.97;;;7.40;1.00;;;;;;5054470;28;20202;-81
2023/12/30 08:42:37;;;;;;;8.43;2.10;;;7.40;1.00;;;;;;5055018;28;20314;-79
2023/12/30 08:45:05;;;;;;;4.77;1.90;;;7.40;99.90;;;;;;5052573;28;20227;-79
2023/12/30 08:47:34;;;;;;;9.40;2.27;;;7.40;99.90;;;;;;5057458;28;20199;-79
2023/12/30 08:50:00;;;;;;;12.40;2.23;;;7.40;99.90;;;;;;5056274;28;20289;-79
2023/12/30 08:52:27;;;;;;;7.73;2.30;;;7.50;99.90;;;;;;5052574;28;20239;-80
2023/12/30 08:54:54;;;;;;;5.57;2.27;;;7.40;99.90;;;;;;5047133;28;20209;-81
2023/12/30 08:57:21;;;;;;;5.67;2.03;;;7.40;99.90;;;;;;5044512;28;20204;-79
2023/12/30 08:59:49;;;;;;;9.00;2.30;;;7.70;1.00;;;;;;5043674;28;20566;-79
2023/12/30 09:02:16;;;;;;;7.70;2.97;;;7.40;1.00;;;;;;5053834;28;20228;-82
2023/12/30 09:04:43;;;;;;;6.10;2.40;;;7.40;99.90;;;;;;5059489;28;20727;-80
2023/12/30 09:07:10;;;;;;;8.67;2.30;;;7.40;1.00;;;;;;5050416;28;20226;-80
2023/12/30 09:09:36;;;;;;;5.90;2.13;;;7.50;99.90;;;;;;5052967;28;20204;-81
2023/12/30 09:12:04;;;;;;;5.87;2.10;;;7.70;99.90;;;;;;5050246;28;20253;-81
2023/12/30 09:14:31;;;;;;;7.17;2.10;;;7.60;99.90;;;;;;5053173;28;20682;-82
2023/12/30 09:16:59;;;;;;;7.20;2.53;;;7.70;99.90;;;;;;5058978;28;20199;-82
2023/12/30 09:19:26;;;;;;;8.23;2.60;;;7.70;99.90;;;;;;5049586;28;20730;-82
2023/12/30 09:21:52;;;;;;;8.30;2.70;;;7.70;99.90;;;;;;5052766;28;20238;-79
2023/12/30 09:24:19;;;;;;;7.13;2.73;;;7.90;99.90;;;;;;5059503;28;20366;-79
2023/12/30 09:26:46;;;;;;;8.67;3.00;;;8.00;99.90;;;;;;5052353;28;20263;-79
2023/12/30 09:29:13;;;;;;;8.53;2.60;;;7.80;99.90;;;;;;5048661;28;20926;-81
2023/12/30 09:31:40;;;;;;;10.83;2.47;;;7.90;99.90;;;;;;5049178;28;20640;-79
2023/12/30 09:34:08;;;;;;;9.27;2.40;;;7.90;93.30;;;;;;5055116;28;20225;-82
2023/12/30 09:36:35;;;;;;;8.33;3.40;;;8.00;1.00;;;;;;5046236;28;20226;-80
2023/12/30 09:39:02;;;;;;;10.53;2.50;;;8.00;1.00;;;;;;5056055;28;20207;-80
2023/12/30 09:41:31;;;;;;;8.30;2.23;;;8.00;1.00;;;;;;5054136;28;20295;-79
2023/12/30 09:44:00;;;;;;;3.20;2.10;;;8.20;1.00;;;;;;5058086;28;20710;-79
2023/12/30 09:46:28;;;;;;;6.03;2.40;;;8.20;1.00;;;;;;5056757;28;20768;-78
2023/12/30 09:48:58;;;;;;;6.57;2.30;;;8.30;1.00;;;;;;5045057;28;20202;-81
2023/12/30 09:51:27;;;;;;;5.10;2.50;;;8.30;1.00;;;;;;5054075;28;20306;-81
2023/12/30 09:53:55;;;;;;;4.63;2.03;;;8.30;1.00;;;;;;5052121;28;20666;-80
2023/12/30 09:56:24;;;;;;;3.97;2.30;;;8.40;1.00;;;;;;5047399;28;20200;-80
2023/12/30 09:58:51;;;;;;;6.53;2.43;;;8.60;1.00;;;;;;5055573;28;20993;-80
2023/12/30 10:01:19;;;;;;;8.27;2.80;;;8.60;1.00;;;;;;5046271;28;20240;-79
2023/12/30 10:03:45;;;;;;;8.07;2.87;;;8.60;1.00;;;;;;5051403;28;20307;-81
2023/12/30 10:06:14;;;;;;;6.00;3.10;;;8.80;1.00;;;;;;5042001;28;20219;-78
2023/12/30 10:08:43;;;;;;;5.63;2.17;;;8.80;1.00;;;;;;5052545;28;20226;-79
2023/12/30 10:11:11;;;;;;;5.77;2.13;;;8.90;1.00;;;;;;5050736;28;20218;-78
2023/12/30 10:13:40;;;;;;;6.40;2.10;;;8.80;1.00;;;;;;5050149;28;20220;-80
2023/12/30 10:16:08;;;;;;;4.13;2.20;;;9.10;1.00;;;;;;5055316;28;20601;-85
2023/12/30 10:18:36;;;;;;;3.10;2.00;;;8.90;1.00;;;;;;5057610;28;20204;-80
2023/12/30 10:21:04;;;;;;;5.10;2.43;;;8.90;1.00;;;;;;5051520;28;20204;-80
2023/12/30 10:23:32;;;;;;;6.50;2.33;;;8.80;1.00;;;;;;5045186;28;20242;-81
2023/12/30 10:26:02;;;;;;;4.73;2.30;;;8.70;1.00;;;;;;5050602;28;20304;-79
2023/12/30 10:28:29;;;;;;;11.90;2.87;;;8.70;1.00;;;;;;5051135;28;20199;-80
2023/12/30 10:31:03;;;;;;;5.07;2.17;;;8.70;1.00;;;;;;5047212;28;20196;-80
2023/12/30 10:33:30;;;;;;;12.47;2.77;;;8.70;1.00;;;;;;5054295;28;20246;-77
2023/12/30 10:35:57;;;;;;;5.80;2.40;;;8.60;1.00;;;;;;5042738;28;20688;-80
2023/12/30 10:38:25;;;;;;;9.57;2.50;;;8.60;1.00;;;;;;5045197;28;20258;-81
2023/12/30 10:40:51;;;;;;;8.87;2.33;;;8.60;1.00;;;;;;5044998;28;20207;-80
2023/12/30 10:43:20;;;;;;;6.57;2.53;;;8.60;1.00;;;;;;5053393;28;20246;-81
2023/12/30 10:45:57;;;;;;;6.37;2.47;;;8.60;1.00;;;;;;5060535;28;20218;-80
2023/12/30 10:48:27;;;;;;;4.37;2.20;;;8.60;1.00;;;;;;5063862;28;20214;-80
2023/12/30 10:50:57;;;;;;;9.67;2.50;;;8.60;1.00;;;;;;5044642;28;20290;-82
2023/12/30 10:53:28;;;;;;;10.30;2.83;;;8.40;1.00;;;;;;5060890;28;20229;-80
2023/12/30 10:55:58;;;;;;;6.97;2.20;;;8.60;1.00;;;;;;5042588;28;20199;-80
2023/12/30 10:58:26;;;;;;;7.03;2.17;;;8.70;1.00;;;;;;5041290;28;20196;-79
2023/12/30 11:00:57;;;;;;;8.83;2.67;;;8.60;1.00;;;;;;5036649;28;20225;-81
2023/12/30 11:03:24;;;;;;;7.43;2.63;;;8.60;1.00;;;;;;5049458;28;20223;-81
2023/12/30 11:06:00;;;;;;;7.20;2.77;;;8.60;1.00;;;;;;5041133;28;20223;-80
2023/12/30 11:08:27;;;;;;;6.90;2.70;;;8.60;1.00;;;;;;5052264;28;20203;-79
2023/12/30 11:10:54;;;;;;;11.57;2.80;;;8.60;1.00;;;;;;5039368;28;20616;-80
2023/12/30 11:13:21;;;;;;;7.30;2.70;;;8.60;1.00;;;;;;5048338;28;20584;-80
2023/12/30 11:15:49;;;;;;;9.80;3.53;;;8.60;1.00;;;;;;5062082;28;20201;-81
2023/12/30 11:18:16;;;;;;;14.67;3.23;;;8.70;1.00;;;;;;5048773;28;20199;-81
2023/12/30 11:20:46;;;;;;;11.43;3.20;;;8.70;1.00;;;;;;5048065;28;20230;-80
2023/12/30 11:23:15;;;;;;;7.97;2.57;;;8.70;1.00;;;;;;5050811;28;20218;-79
2023/12/30 11:25:43;;;;;;;7.57;2.90;;;8.70;1.00;;;;;;5049337;28;20231;-80
2023/12/30 11:28:17;;;;;;;8.03;3.13;;;8.70;1.00;;;;;;5041658;28;20206;-81
2023/12/30 11:30:45;;;;;;;13.07;3.40;;;8.70;1.00;;;;;;5051425;28;20641;-80
2023/12/30 11:33:14;;;;;;;8.63;3.90;;;8.70;1.00;;;;;;5040369;28;20242;-83
2023/12/30 11:35:41;;;;;;;9.23;4.17;;;8.80;1.00;;;;;;5045414;28;20545;-80
2023/12/30 11:38:11;;;;;;;9.90;4.10;;;8.80;1.00;;;;;;5046824;28;20663;-80
2023/12/30 11:40:42;;;;;;;9.13;4.17;;;8.70;1.00;;;;;;5040372;28;20203;-80
2023/12/30 11:43:10;;;;;;;9.07;3.97;;;8.80;1.00;;;;;;5038861;28;20223;-80
2023/12/30 11:45:37;;;;;;;10.30;4.20;;;8.80;1.00;;;;;;5037348;28;20229;-81
2023/12/30 11:48:05;;;;;;;8.00;4.10;;;8.80;1.00;;;;;;5038957;28;20211;-82
2023/12/30 11:50:33;;;;;;;9.80;4.53;;;8.80;1.00;;;;;;5052162;28;20210;-84
2023/12/30 11:53:01;;;;;;;13.80;4.40;;;8.80;1.00;;;;;;5040170;28;20318;-81
2023/12/30 11:55:28;;;;;;;12.40;4.23;;;8.80;1.00;;;;;;5047779;28;20646;-83
2023/12/30 11:57:56;;;;;;;10.10;4.07;;;8.80;1.00;;;;;;5054287;28;20286;-83
2023/12/30 12:00:26;;;;;;;7.87;4.20;;;8.90;1.00;;;;;;5049682;28;20682;-83
2023/12/30 12:02:53;;;;;;;7.03;4.07;;;8.90;1.00;;;;;;5045974;28;20223;-81
2023/12/30 12:05:20;;;;;;;11.83;4.07;;;8.90;1.00;;;;;;5038768;28;20199;-81
2023/12/30 12:07:48;;;;;;;13.30;4.33;;;8.90;1.00;;;;;;5049645;28;20661;-80
2023/12/30 12:10:15;;;;;;;10.20;3.70;;;9.00;1.00;;;;;;5042152;28;20257;-79
2023/12/30 12:12:45;;;;;;;7.57;3.90;;;9.00;1.00;;;;;;5043564;28;20222;-81
2023/12/30 12:15:13;;;;;;;11.40;3.90;;;8.90;1.00;;;;;;5055325;28;20597;-83
2023/12/30 12:17:40;;;;;;;22.47;5.97;;;9.00;1.00;;;;;;5051874;28;20204;-80
2023/12/30 12:20:10;;;;;;;10.03;4.30;;;9.00;1.00;;;;;;5054949;28;20259;-79
2023/12/30 12:22:38;;;;;;;8.00;3.70;;;9.00;1.00;;;;;;5050133;28;20745;-79
2023/12/30 12:25:07;;;;;;;16.20;4.30;;;9.10;1.00;;;;;;5051028;28;20206;-81
2023/12/30 12:27:34;;;;;;;8.03;3.87;;;9.10;1.00;;;;;;5044909;28;20592;-80
2023/12/30 12:30:01;;;;;;;8.23;3.50;;;9.10;1.00;;;;;;5050049;28;20646;-81
2023/12/30 12:32:28;;;;;;;9.20;3.50;;;9.10;1.00;;;;;;5045603;28;20222;-81
2023/12/30 12:34:55;;;;;;;13.20;3.53;;;9.10;1.00;;;;;;5042327;28;20199;-82
2023/12/30 12:37:22;;;;;;;7.50;3.60;;;9.10;1.00;;;;;;5045382;28;20333;-82
2023/12/30 12:39:49;;;;;;;5.03;3.00;;;9.10;1.00;;;;;;5051650;28;20207;-81
2023/12/30 12:42:17;;;;;;;8.50;3.23;;;9.00;1.00;;;;;;5037534;28;20247;-81
2023/12/30 12:44:44;;;;;;;8.20;3.70;;;9.00;1.00;;;;;;5049219;28;20199;-82
2023/12/30 12:47:11;;;;;;;7.77;3.50;;;8.90;1.00;;;;;;5042615;28;20713;-80
2023/12/30 12:49:38;;;;;;;5.63;2.80;;;8.90;1.00;;;;;;5039915;28;20199;-81
2023/12/30 12:52:06;;;;;;;7.90;3.10;;;8.80;1.00;;;;;;5040587;28;20701;-84
2023/12/30 12:54:32;;;;;;;7.20;3.30;;;8.80;1.00;;;;;;5050261;28;20294;-80
2023/12/30 12:56:59;;;;;;;5.97;2.53;;;8.80;1.00;;;;;;5048587;28;20203;-80
2023/12/30 12:59:27;;;;;;;6.33;3.40;;;8.80;1.00;;;;;;5045374;28;20205;-80
2023/12/30 13:01:55;;;;;;;9.27;3.30;;;8.80;1.00;;;;;;5052899;28;20587;-80
2023/12/30 13:04:22;;;;;;;8.60;3.37;;;8.90;1.00;;;;;;5047392;28;20314;-82